Terminal Aerodrome Forecast
Issued by NWS Duluth, MN

Home | Current Version | Previous Version | Text Only | Print | Product List | Glossary On
Versions: 1 2 3 4 5 6 7 8 9 10 11 12 13 14 15 16 17 18 19 20 21 22 23 24 25 26 27 28 29 30 31 32 33 34 35
000
FTUS43 KDLH 180900 AAA
TAFINL
TAF AMD
KINL 180958Z 1810/1906 14007KT P6SM OVC012
      TEMPO 1810/1814 OVC008
     FM181400 15010KT P6SM SCT015 BKN040
     FM181800 16012KT P6SM SCT040
     FM190400 17010KT P6SM OVC018=

USA.gov is the U.S. government's official web portal to all federal, state and local government web resources and services.